sensor_id;sensor_type;location;lat;lon;timestamp;P1;durP1;ratioP1;P2;durP2;ratioP2
51358;SDS011;37448;51.588;7.248;2022-07-30T00:01:34;8.73;;;5.32;;
51358;SDS011;37448;51.588;7.248;2022-07-30T00:04:04;10.40;;;5.35;;
51358;SDS011;37448;51.588;7.248;2022-07-30T00:06:35;12.85;;;5.43;;
51358;SDS011;37448;51.588;7.248;2022-07-30T00:09:06;9.88;;;5.72;;
51358;SDS011;37448;51.588;7.248;2022-07-30T00:11:37;8.43;;;5.32;;
51358;SDS011;37448;51.588;7.248;2022-07-30T00:14:07;10.30;;;5.93;;
51358;SDS011;37448;51.588;7.248;2022-07-30T00:16:37;8.82;;;5.32;;
51358;SDS011;37448;51.588;7.248;2022-07-30T00:19:08;12.85;;;6.38;;
51358;SDS011;37448;51.588;7.248;2022-07-30T00:21:38;10.85;;;6.13;;
51358;SDS011;37448;51.588;7.248;2022-07-30T00:24:09;13.25;;;5.88;;
51358;SDS011;37448;51.588;7.248;2022-07-30T00:26:39;11.77;;;6.35;;
51358;SDS011;37448;51.588;7.248;2022-07-30T00:29:10;11.13;;;6.45;;
51358;SDS011;37448;51.588;7.248;2022-07-30T00:31:40;11.32;;;6.05;;
51358;SDS011;37448;51.588;7.248;2022-07-30T00:34:11;10.25;;;6.32;;
51358;SDS011;37448;51.588;7.248;2022-07-30T00:36:44;11.27;;;5.97;;
51358;SDS011;37448;51.588;7.248;2022-07-30T00:39:14;9.82;;;6.45;;
51358;SDS011;37448;51.588;7.248;2022-07-30T00:41:51;11.55;;;6.03;;
51358;SDS011;37448;51.588;7.248;2022-07-30T00:44:32;11.93;;;6.38;;
51358;SDS011;37448;51.588;7.248;2022-07-30T00:47:03;11.88;;;6.55;;
51358;SDS011;37448;51.588;7.248;2022-07-30T00:49:33;10.25;;;6.25;;
51358;SDS011;37448;51.588;7.248;2022-07-30T00:52:03;10.18;;;5.90;;
51358;SDS011;37448;51.588;7.248;2022-07-30T00:54:34;11.80;;;6.75;;
51358;SDS011;37448;51.588;7.248;2022-07-30T00:57:04;10.45;;;6.20;;
51358;SDS011;37448;51.588;7.248;2022-07-30T00:59:35;10.85;;;6.28;;
51358;SDS011;37448;51.588;7.248;2022-07-30T01:02:05;12.73;;;6.60;;
51358;SDS011;37448;51.588;7.248;2022-07-30T01:04:35;11.30;;;6.68;;
51358;SDS011;37448;51.588;7.248;2022-07-30T01:07:06;11.85;;;6.80;;
51358;SDS011;37448;51.588;7.248;2022-07-30T01:09:36;11.60;;;6.70;;
51358;SDS011;37448;51.588;7.248;2022-07-30T01:12:08;12.73;;;7.22;;
51358;SDS011;37448;51.588;7.248;2022-07-30T01:14:40;11.60;;;6.53;;
51358;SDS011;37448;51.588;7.248;2022-07-30T01:17:10;11.88;;;7.05;;
51358;SDS011;37448;51.588;7.248;2022-07-30T01:19:40;11.38;;;7.35;;
51358;SDS011;37448;51.588;7.248;2022-07-30T01:25:10;12.93;;;7.15;;
51358;SDS011;37448;51.588;7.248;2022-07-30T01:27:47;10.13;;;7.00;;
51358;SDS011;37448;51.588;7.248;2022-07-30T01:30:21;11.20;;;6.70;;
51358;SDS011;37448;51.588;7.248;2022-07-30T01:35:26;11.73;;;7.82;;
51358;SDS011;37448;51.588;7.248;2022-07-30T01:37:58;13.07;;;7.63;;
51358;SDS011;37448;51.588;7.248;2022-07-30T01:40:30;13.60;;;7.45;;
51358;SDS011;37448;51.588;7.248;2022-07-30T01:43:02;13.50;;;7.65;;
51358;SDS011;37448;51.588;7.248;2022-07-30T01:45:35;15.00;;;7.75;;
51358;SDS011;37448;51.588;7.248;2022-07-30T01:48:08;10.52;;;7.32;;
51358;SDS011;37448;51.588;7.248;2022-07-30T01:50:41;15.07;;;7.53;;
51358;SDS011;37448;51.588;7.248;2022-07-30T01:53:15;11.32;;;7.40;;
51358;SDS011;37448;51.588;7.248;2022-07-30T01:55:48;12.15;;;7.50;;
51358;SDS011;37448;51.588;7.248;2022-07-30T01:58:21;14.02;;;7.32;;
51358;SDS011;37448;51.588;7.248;2022-07-30T02:00:54;13.68;;;7.30;;
51358;SDS011;37448;51.588;7.248;2022-07-30T02:03:27;11.60;;;7.13;;
51358;SDS011;37448;51.588;7.248;2022-07-30T02:06:04;12.57;;;7.13;;
51358;SDS011;37448;51.588;7.248;2022-07-30T02:11:14;11.90;;;7.60;;
51358;SDS011;37448;51.588;7.248;2022-07-30T02:14:06;12.70;;;7.72;;
51358;SDS011;37448;51.588;7.248;2022-07-30T02:16:41;12.45;;;7.70;;
51358;SDS011;37448;51.588;7.248;2022-07-30T02:19:19;13.45;;;8.30;;
51358;SDS011;37448;51.588;7.248;2022-07-30T02:21:55;13.32;;;7.55;;
51358;SDS011;37448;51.588;7.248;2022-07-30T02:24:29;11.05;;;6.95;;
51358;SDS011;37448;51.588;7.248;2022-07-30T02:27:04;11.23;;;7.03;;
51358;SDS011;37448;51.588;7.248;2022-07-30T02:29:39;13.88;;;7.60;;
51358;SDS011;37448;51.588;7.248;2022-07-30T02:32:12;12.13;;;7.50;;
51358;SDS011;37448;51.588;7.248;2022-07-30T02:34:47;13.00;;;8.27;;
51358;SDS011;37448;51.588;7.248;2022-07-30T02:37:20;11.65;;;7.30;;
51358;SDS011;37448;51.588;7.248;2022-07-30T02:39:53;13.65;;;7.15;;
51358;SDS011;37448;51.588;7.248;2022-07-30T02:42:25;15.75;;;7.78;;
51358;SDS011;37448;51.588;7.248;2022-07-30T02:44:57;14.02;;;7.22;;
51358;SDS011;37448;51.588;7.248;2022-07-30T02:47:29;12.27;;;7.43;;
51358;SDS011;37448;51.588;7.248;2022-07-30T02:50:00;11.35;;;7.43;;
51358;SDS011;37448;51.588;7.248;2022-07-30T02:52:32;12.18;;;7.65;;
51358;SDS011;37448;51.588;7.248;2022-07-30T02:55:04;11.63;;;8.43;;
51358;SDS011;37448;51.588;7.248;2022-07-30T02:57:38;15.80;;;8.27;;
51358;SDS011;37448;51.588;7.248;2022-07-30T03:00:12;14.65;;;8.73;;
51358;SDS011;37448;51.588;7.248;2022-07-30T03:02:42;15.07;;;7.72;;
51358;SDS011;37448;51.588;7.248;2022-07-30T03:05:14;12.20;;;7.80;;
51358;SDS011;37448;51.588;7.248;2022-07-30T03:07:45;11.32;;;7.80;;
51358;SDS011;37448;51.588;7.248;2022-07-30T03:10:15;13.63;;;8.25;;
51358;SDS011;37448;51.588;7.248;2022-07-30T03:12:46;14.95;;;8.70;;
51358;SDS011;37448;51.588;7.248;2022-07-30T03:15:19;18.15;;;8.52;;
51358;SDS011;37448;51.588;7.248;2022-07-30T03:17:51;12.32;;;8.30;;
51358;SDS011;37448;51.588;7.248;2022-07-30T03:20:24;12.30;;;8.07;;
51358;SDS011;37448;51.588;7.248;2022-07-30T03:22:56;13.75;;;8.40;;
51358;SDS011;37448;51.588;7.248;2022-07-30T03:25:30;12.63;;;8.15;;
51358;SDS011;37448;51.588;7.248;2022-07-30T03:28:02;16.67;;;8.73;;
51358;SDS011;37448;51.588;7.248;2022-07-30T03:30:34;16.00;;;9.70;;
51358;SDS011;37448;51.588;7.248;2022-07-30T03:33:04;20.27;;;10.43;;
51358;SDS011;37448;51.588;7.248;2022-07-30T03:35:35;19.25;;;10.57;;
51358;SDS011;37448;51.588;7.248;2022-07-30T03:38:06;16.80;;;10.73;;
51358;SDS011;37448;51.588;7.248;2022-07-30T03:40:40;19.90;;;10.80;;
51358;SDS011;37448;51.588;7.248;2022-07-30T03:43:11;19.15;;;10.98;;
51358;SDS011;37448;51.588;7.248;2022-07-30T03:45:43;15.82;;;11.57;;
51358;SDS011;37448;51.588;7.248;2022-07-30T03:48:14;17.52;;;11.32;;
51358;SDS011;37448;51.588;7.248;2022-07-30T03:50:45;16.67;;;10.95;;
51358;SDS011;37448;51.588;7.248;2022-07-30T03:53:16;17.70;;;11.23;;
51358;SDS011;37448;51.588;7.248;2022-07-30T03:55:48;18.65;;;10.77;;
51358;SDS011;37448;51.588;7.248;2022-07-30T03:58:19;18.55;;;11.45;;
51358;SDS011;37448;51.588;7.248;2022-07-30T04:00:50;17.00;;;11.65;;
51358;SDS011;37448;51.588;7.248;2022-07-30T04:03:24;17.45;;;11.02;;
51358;SDS011;37448;51.588;7.248;2022-07-30T04:05:55;16.08;;;11.38;;
51358;SDS011;37448;51.588;7.248;2022-07-30T04:08:26;18.35;;;12.02;;
51358;SDS011;37448;51.588;7.248;2022-07-30T04:10:57;17.40;;;11.57;;
51358;SDS011;37448;51.588;7.248;2022-07-30T04:13:27;18.58;;;12.07;;
51358;SDS011;37448;51.588;7.248;2022-07-30T04:16:00;14.57;;;10.98;;
51358;SDS011;37448;51.588;7.248;2022-07-30T04:18:37;19.25;;;11.55;;
51358;SDS011;37448;51.588;7.248;2022-07-30T04:21:11;18.60;;;12.30;;
51358;SDS011;37448;51.588;7.248;2022-07-30T04:23:45;18.95;;;12.13;;
51358;SDS011;37448;51.588;7.248;2022-07-30T04:26:17;18.25;;;11.90;;
51358;SDS011;37448;51.588;7.248;2022-07-30T04:28:48;19.52;;;12.18;;
51358;SDS011;37448;51.588;7.248;2022-07-30T04:31:19;26.08;;;14.02;;
51358;SDS011;37448;51.588;7.248;2022-07-30T04:33:50;18.00;;;12.70;;
51358;SDS011;37448;51.588;7.248;2022-07-30T04:36:20;21.50;;;13.20;;
51358;SDS011;37448;51.588;7.248;2022-07-30T04:38:50;18.88;;;12.45;;
51358;SDS011;37448;51.588;7.248;2022-07-30T04:41:21;18.42;;;12.88;;
51358;SDS011;37448;51.588;7.248;2022-07-30T04:43:51;22.77;;;13.93;;
51358;SDS011;37448;51.588;7.248;2022-07-30T04:46:22;20.33;;;12.70;;
51358;SDS011;37448;51.588;7.248;2022-07-30T04:48:52;18.90;;;12.63;;
51358;SDS011;37448;51.588;7.248;2022-07-30T04:51:27;25.25;;;13.25;;
51358;SDS011;37448;51.588;7.248;2022-07-30T04:54:01;20.27;;;13.40;;
51358;SDS011;37448;51.588;7.248;2022-07-30T04:56:34;20.50;;;13.45;;
51358;SDS011;37448;51.588;7.248;2022-07-30T04:59:06;24.08;;;15.20;;
51358;SDS011;37448;51.588;7.248;2022-07-30T05:01:39;22.88;;;13.77;;
51358;SDS011;37448;51.588;7.248;2022-07-30T05:04:11;24.33;;;15.57;;
51358;SDS011;37448;51.588;7.248;2022-07-30T05:06:42;26.65;;;15.45;;
51358;SDS011;37448;51.588;7.248;2022-07-30T05:09:14;34.90;;;15.25;;
51358;SDS011;37448;51.588;7.248;2022-07-30T05:11:51;23.58;;;16.10;;
51358;SDS011;37448;51.588;7.248;2022-07-30T05:14:23;21.90;;;15.52;;
51358;SDS011;37448;51.588;7.248;2022-07-30T05:16:55;25.10;;;16.00;;
51358;SDS011;37448;51.588;7.248;2022-07-30T05:19:25;27.00;;;16.83;;
51358;SDS011;37448;51.588;7.248;2022-07-30T05:21:55;33.28;;;16.58;;
51358;SDS011;37448;51.588;7.248;2022-07-30T05:24:26;27.60;;;16.60;;
51358;SDS011;37448;51.588;7.248;2022-07-30T05:26:56;23.67;;;15.45;;
51358;SDS011;37448;51.588;7.248;2022-07-30T05:29:26;26.17;;;16.67;;
51358;SDS011;37448;51.588;7.248;2022-07-30T05:31:57;25.75;;;17.00;;
51358;SDS011;37448;51.588;7.248;2022-07-30T05:34:27;24.65;;;16.25;;
51358;SDS011;37448;51.588;7.248;2022-07-30T05:36:57;24.35;;;16.55;;
51358;SDS011;37448;51.588;7.248;2022-07-30T05:39:28;29.83;;;16.92;;
51358;SDS011;37448;51.588;7.248;2022-07-30T05:41:58;28.20;;;16.50;;
51358;SDS011;37448;51.588;7.248;2022-07-30T05:44:28;27.88;;;17.70;;
51358;SDS011;37448;51.588;7.248;2022-07-30T05:46:59;28.98;;;17.15;;
51358;SDS011;37448;51.588;7.248;2022-07-30T05:49:29;32.88;;;18.10;;
51358;SDS011;37448;51.588;7.248;2022-07-30T05:51:59;27.73;;;16.92;;
51358;SDS011;37448;51.588;7.248;2022-07-30T05:54:30;29.95;;;17.60;;
51358;SDS011;37448;51.588;7.248;2022-07-30T05:57:00;33.33;;;17.85;;
51358;SDS011;37448;51.588;7.248;2022-07-30T05:59:30;29.27;;;16.63;;
51358;SDS011;37448;51.588;7.248;2022-07-30T06:02:01;29.00;;;16.77;;
51358;SDS011;37448;51.588;7.248;2022-07-30T06:04:33;28.58;;;16.30;;
51358;SDS011;37448;51.588;7.248;2022-07-30T06:07:04;28.88;;;16.65;;
51358;SDS011;37448;51.588;7.248;2022-07-30T06:09:34;25.20;;;15.85;;
51358;SDS011;37448;51.588;7.248;2022-07-30T06:12:05;22.33;;;14.80;;
51358;SDS011;37448;51.588;7.248;2022-07-30T06:14:35;23.67;;;15.35;;
51358;SDS011;37448;51.588;7.248;2022-07-30T06:17:06;24.80;;;14.65;;
51358;SDS011;37448;51.588;7.248;2022-07-30T06:19:37;24.15;;;14.95;;
51358;SDS011;37448;51.588;7.248;2022-07-30T06:22:07;23.50;;;14.80;;
51358;SDS011;37448;51.588;7.248;2022-07-30T06:24:38;25.05;;;14.82;;
51358;SDS011;37448;51.588;7.248;2022-07-30T06:27:08;21.02;;;14.50;;
51358;SDS011;37448;51.588;7.248;2022-07-30T06:29:39;23.88;;;15.02;;
51358;SDS011;37448;51.588;7.248;2022-07-30T06:32:09;22.85;;;15.25;;
51358;SDS011;37448;51.588;7.248;2022-07-30T06:34:39;20.10;;;15.05;;
51358;SDS011;37448;51.588;7.248;2022-07-30T06:37:10;21.00;;;14.77;;
51358;SDS011;37448;51.588;7.248;2022-07-30T06:39:40;20.55;;;14.10;;
51358;SDS011;37448;51.588;7.248;2022-07-30T06:42:10;21.42;;;14.45;;
51358;SDS011;37448;51.588;7.248;2022-07-30T06:44:41;22.83;;;14.13;;
51358;SDS011;37448;51.588;7.248;2022-07-30T06:47:11;22.20;;;14.32;;
51358;SDS011;37448;51.588;7.248;2022-07-30T06:49:42;24.38;;;16.05;;
51358;SDS011;37448;51.588;7.248;2022-07-30T06:52:12;28.80;;;18.50;;
51358;SDS011;37448;51.588;7.248;2022-07-30T06:54:42;30.35;;;17.08;;
51358;SDS011;37448;51.588;7.248;2022-07-30T06:57:13;24.13;;;16.10;;
51358;SDS011;37448;51.588;7.248;2022-07-30T06:59:44;23.35;;;14.35;;
51358;SDS011;37448;51.588;7.248;2022-07-30T07:02:14;22.08;;;14.57;;
51358;SDS011;37448;51.588;7.248;2022-07-30T07:04:45;26.25;;;16.23;;
51358;SDS011;37448;51.588;7.248;2022-07-30T07:07:15;31.60;;;18.40;;
51358;SDS011;37448;51.588;7.248;2022-07-30T07:09:45;38.25;;;21.27;;
51358;SDS011;37448;51.588;7.248;2022-07-30T07:12:16;35.40;;;20.83;;
51358;SDS011;37448;51.588;7.248;2022-07-30T07:14:46;36.25;;;20.10;;
51358;SDS011;37448;51.588;7.248;2022-07-30T07:17:16;39.45;;;22.27;;
51358;SDS011;37448;51.588;7.248;2022-07-30T07:19:47;37.05;;;22.77;;
51358;SDS011;37448;51.588;7.248;2022-07-30T07:22:17;40.67;;;24.05;;
51358;SDS011;37448;51.588;7.248;2022-07-30T07:24:47;41.63;;;22.52;;
51358;SDS011;37448;51.588;7.248;2022-07-30T07:27:18;40.95;;;23.05;;
51358;SDS011;37448;51.588;7.248;2022-07-30T07:29:48;38.75;;;22.92;;
51358;SDS011;37448;51.588;7.248;2022-07-30T07:32:19;46.72;;;25.83;;
51358;SDS011;37448;51.588;7.248;2022-07-30T07:34:49;43.75;;;25.48;;
51358;SDS011;37448;51.588;7.248;2022-07-30T07:37:19;47.22;;;27.65;;
51358;SDS011;37448;51.588;7.248;2022-07-30T07:39:50;40.53;;;24.80;;
51358;SDS011;37448;51.588;7.248;2022-07-30T07:42:20;43.00;;;25.27;;
51358;SDS011;37448;51.588;7.248;2022-07-30T07:44:51;45.80;;;26.23;;
51358;SDS011;37448;51.588;7.248;2022-07-30T07:47:21;44.22;;;26.95;;
51358;SDS011;37448;51.588;7.248;2022-07-30T07:49:54;46.88;;;27.88;;
51358;SDS011;37448;51.588;7.248;2022-07-30T07:52:25;46.03;;;27.58;;
51358;SDS011;37448;51.588;7.248;2022-07-30T07:54:55;41.83;;;26.48;;
51358;SDS011;37448;51.588;7.248;2022-07-30T07:57:25;47.08;;;28.20;;
51358;SDS011;37448;51.588;7.248;2022-07-30T07:59:56;45.80;;;27.77;;
51358;SDS011;37448;51.588;7.248;2022-07-30T08:02:26;50.67;;;29.52;;
51358;SDS011;37448;51.588;7.248;2022-07-30T08:04:56;45.25;;;28.33;;
51358;SDS011;37448;51.588;7.248;2022-07-30T08:07:27;51.55;;;28.38;;
51358;SDS011;37448;51.588;7.248;2022-07-30T08:09:58;44.97;;;27.92;;
51358;SDS011;37448;51.588;7.248;2022-07-30T08:12:28;42.55;;;28.17;;
51358;SDS011;37448;51.588;7.248;2022-07-30T08:14:59;43.83;;;28.35;;
51358;SDS011;37448;51.588;7.248;2022-07-30T08:17:29;52.88;;;30.55;;
51358;SDS011;37448;51.588;7.248;2022-07-30T08:20:00;46.63;;;30.13;;
51358;SDS011;37448;51.588;7.248;2022-07-30T08:22:30;47.88;;;29.98;;
51358;SDS011;37448;51.588;7.248;2022-07-30T08:25:01;40.97;;;27.58;;
51358;SDS011;37448;51.588;7.248;2022-07-30T08:27:32;39.55;;;26.80;;
51358;SDS011;37448;51.588;7.248;2022-07-30T08:30:03;39.70;;;25.73;;
51358;SDS011;37448;51.588;7.248;2022-07-30T08:32:34;39.30;;;26.27;;
51358;SDS011;37448;51.588;7.248;2022-07-30T08:35:05;36.40;;;25.60;;
51358;SDS011;37448;51.588;7.248;2022-07-30T08:37:36;36.38;;;25.48;;
51358;SDS011;37448;51.588;7.248;2022-07-30T08:40:07;42.83;;;27.70;;
51358;SDS011;37448;51.588;7.248;2022-07-30T08:42:37;36.17;;;25.80;;
51358;SDS011;37448;51.588;7.248;2022-07-30T08:45:08;36.85;;;25.60;;
51358;SDS011;37448;51.588;7.248;2022-07-30T08:47:42;34.28;;;24.67;;
51358;SDS011;37448;51.588;7.248;2022-07-30T08:50:15;30.80;;;22.08;;
51358;SDS011;37448;51.588;7.248;2022-07-30T08:52:46;31.65;;;21.27;;
51358;SDS011;37448;51.588;7.248;2022-07-30T08:55:18;30.30;;;20.40;;
51358;SDS011;37448;51.588;7.248;2022-07-30T08:57:50;26.50;;;18.30;;
51358;SDS011;37448;51.588;7.248;2022-07-30T09:00:20;24.58;;;17.20;;
51358;SDS011;37448;51.588;7.248;2022-07-30T09:02:51;23.63;;;16.92;;
51358;SDS011;37448;51.588;7.248;2022-07-30T09:05:21;24.92;;;17.27;;
51358;SDS011;37448;51.588;7.248;2022-07-30T09:07:52;23.23;;;16.75;;
51358;SDS011;37448;51.588;7.248;2022-07-30T09:10:22;22.58;;;15.55;;
51358;SDS011;37448;51.588;7.248;2022-07-30T09:12:53;22.35;;;15.57;;
51358;SDS011;37448;51.588;7.248;2022-07-30T09:15:24;18.67;;;13.20;;
51358;SDS011;37448;51.588;7.248;2022-07-30T09:17:56;19.45;;;13.23;;
51358;SDS011;37448;51.588;7.248;2022-07-30T09:20:27;18.27;;;12.93;;
51358;SDS011;37448;51.588;7.248;2022-07-30T09:23:01;19.55;;;13.02;;
51358;SDS011;37448;51.588;7.248;2022-07-30T09:28:10;14.23;;;10.20;;
51358;SDS011;37448;51.588;7.248;2022-07-30T09:30:42;18.38;;;10.30;;
51358;SDS011;37448;51.588;7.248;2022-07-30T09:33:15;14.95;;;9.13;;
51358;SDS011;37448;51.588;7.248;2022-07-30T09:36:02;14.20;;;8.75;;
51358;SDS011;37448;51.588;7.248;2022-07-30T09:38:40;16.42;;;8.65;;
51358;SDS011;37448;51.588;7.248;2022-07-30T09:41:11;16.50;;;8.07;;
51358;SDS011;37448;51.588;7.248;2022-07-30T09:43:42;13.40;;;7.93;;
51358;SDS011;37448;51.588;7.248;2022-07-30T09:46:14;13.07;;;7.53;;
51358;SDS011;37448;51.588;7.248;2022-07-30T09:48:45;12.13;;;7.95;;
51358;SDS011;37448;51.588;7.248;2022-07-30T09:51:16;14.35;;;7.38;;
51358;SDS011;37448;51.588;7.248;2022-07-30T09:53:56;11.95;;;6.75;;
51358;SDS011;37448;51.588;7.248;2022-07-30T09:56:29;15.23;;;7.28;;
51358;SDS011;37448;51.588;7.248;2022-07-30T09:58:59;12.35;;;7.68;;
51358;SDS011;37448;51.588;7.248;2022-07-30T10:01:52;10.82;;;7.07;;
51358;SDS011;37448;51.588;7.248;2022-07-30T10:04:26;14.15;;;6.88;;
51358;SDS011;37448;51.588;7.248;2022-07-30T10:06:58;13.50;;;7.65;;
51358;SDS011;37448;51.588;7.248;2022-07-30T10:09:30;10.48;;;6.05;;
51358;SDS011;37448;51.588;7.248;2022-07-30T10:12:03;11.52;;;5.90;;
51358;SDS011;37448;51.588;7.248;2022-07-30T10:14:35;8.73;;;5.25;;
51358;SDS011;37448;51.588;7.248;2022-07-30T10:17:07;9.77;;;6.55;;
51358;SDS011;37448;51.588;7.248;2022-07-30T10:19:38;9.82;;;6.43;;
51358;SDS011;37448;51.588;7.248;2022-07-30T10:22:08;8.68;;;4.40;;
51358;SDS011;37448;51.588;7.248;2022-07-30T10:24:39;14.43;;;5.15;;
51358;SDS011;37448;51.588;7.248;2022-07-30T10:27:10;9.82;;;5.78;;
51358;SDS011;37448;51.588;7.248;2022-07-30T10:29:41;9.85;;;4.93;;
51358;SDS011;37448;51.588;7.248;2022-07-30T10:32:11;10.82;;;4.90;;
51358;SDS011;37448;51.588;7.248;2022-07-30T10:34:42;8.53;;;4.33;;
51358;SDS011;37448;51.588;7.248;2022-07-30T10:37:13;7.45;;;3.70;;
51358;SDS011;37448;51.588;7.248;2022-07-30T10:39:46;8.32;;;3.92;;
51358;SDS011;37448;51.588;7.248;2022-07-30T10:42:37;7.40;;;3.75;;
51358;SDS011;37448;51.588;7.248;2022-07-30T10:45:18;7.18;;;3.70;;
51358;SDS011;37448;51.588;7.248;2022-07-30T10:47:56;9.52;;;3.65;;
51358;SDS011;37448;51.588;7.248;2022-07-30T10:50:27;7.53;;;3.53;;
51358;SDS011;37448;51.588;7.248;2022-07-30T10:52:58;10.02;;;3.85;;
51358;SDS011;37448;51.588;7.248;2022-07-30T10:55:33;8.60;;;4.03;;
51358;SDS011;37448;51.588;7.248;2022-07-30T10:58:07;7.28;;;3.72;;
51358;SDS011;37448;51.588;7.248;2022-07-30T11:03:22;8.45;;;3.95;;
51358;SDS011;37448;51.588;7.248;2022-07-30T11:08:44;8.25;;;3.63;;
51358;SDS011;37448;51.588;7.248;2022-07-30T11:13:57;6.93;;;3.50;;
51358;SDS011;37448;51.588;7.248;2022-07-30T11:19:05;13.18;;;3.63;;
51358;SDS011;37448;51.588;7.248;2022-07-30T11:24:54;8.65;;;4.90;;
51358;SDS011;37448;51.588;7.248;2022-07-30T11:32:49;8.68;;;3.63;;
51358;SDS011;37448;51.588;7.248;2022-07-30T11:35:24;8.43;;;3.33;;
51358;SDS011;37448;51.588;7.248;2022-07-30T11:37:57;7.50;;;3.50;;
51358;SDS011;37448;51.588;7.248;2022-07-30T11:41:07;8.90;;;2.65;;
51358;SDS011;37448;51.588;7.248;2022-07-30T11:46:11;7.28;;;3.28;;
51358;SDS011;37448;51.588;7.248;2022-07-30T11:49:03;6.05;;;2.85;;
51358;SDS011;37448;51.588;7.248;2022-07-30T11:51:40;9.38;;;2.90;;
51358;SDS011;37448;51.588;7.248;2022-07-30T11:54:12;7.10;;;2.78;;
51358;SDS011;37448;51.588;7.248;2022-07-30T11:57:01;6.00;;;2.53;;
51358;SDS011;37448;51.588;7.248;2022-07-30T11:59:31;7.00;;;1.92;;
51358;SDS011;37448;51.588;7.248;2022-07-30T12:02:25;10.77;;;2.60;;
51358;SDS011;37448;51.588;7.248;2022-07-30T12:04:56;6.30;;;2.20;;
51358;SDS011;37448;51.588;7.248;2022-07-30T12:07:26;6.68;;;2.20;;
51358;SDS011;37448;51.588;7.248;2022-07-30T12:10:13;5.05;;;1.90;;
51358;SDS011;37448;51.588;7.248;2022-07-30T12:12:48;6.60;;;1.95;;
51358;SDS011;37448;51.588;7.248;2022-07-30T12:15:28;6.13;;;2.20;;
51358;SDS011;37448;51.588;7.248;2022-07-30T12:18:02;4.95;;;1.85;;
51358;SDS011;37448;51.588;7.248;2022-07-30T12:20:33;4.68;;;1.58;;
51358;SDS011;37448;51.588;7.248;2022-07-30T12:23:12;5.25;;;1.70;;
51358;SDS011;37448;51.588;7.248;2022-07-30T12:25:44;4.55;;;1.50;;
51358;SDS011;37448;51.588;7.248;2022-07-30T12:28:27;5.38;;;1.40;;
51358;SDS011;37448;51.588;7.248;2022-07-30T12:31:00;6.10;;;2.10;;
51358;SDS011;37448;51.588;7.248;2022-07-30T12:33:33;4.45;;;1.42;;
51358;SDS011;37448;51.588;7.248;2022-07-30T12:36:04;3.08;;;1.30;;
51358;SDS011;37448;51.588;7.248;2022-07-30T12:38:44;3.65;;;1.23;;
51358;SDS011;37448;51.588;7.248;2022-07-30T12:41:17;4.43;;;1.90;;
51358;SDS011;37448;51.588;7.248;2022-07-30T12:43:54;3.63;;;1.55;;
51358;SDS011;37448;51.588;7.248;2022-07-30T12:46:26;5.57;;;1.70;;
51358;SDS011;37448;51.588;7.248;2022-07-30T12:51:28;5.25;;;1.85;;
51358;SDS011;37448;51.588;7.248;2022-07-30T12:54:12;3.97;;;1.60;;
51358;SDS011;37448;51.588;7.248;2022-07-30T12:56:55;5.43;;;1.65;;
51358;SDS011;37448;51.588;7.248;2022-07-30T12:59:32;6.78;;;1.60;;
51358;SDS011;37448;51.588;7.248;2022-07-30T13:02:04;4.70;;;1.67;;
51358;SDS011;37448;51.588;7.248;2022-07-30T13:04:34;2.78;;;1.48;;
51358;SDS011;37448;51.588;7.248;2022-07-30T13:07:18;7.90;;;1.50;;
51358;SDS011;37448;51.588;7.248;2022-07-30T13:10:04;6.22;;;1.65;;
51358;SDS011;37448;51.588;7.248;2022-07-30T13:12:35;3.47;;;1.42;;
51358;SDS011;37448;51.588;7.248;2022-07-30T13:15:06;4.30;;;1.25;;
51358;SDS011;37448;51.588;7.248;2022-07-30T13:17:37;5.30;;;1.70;;
51358;SDS011;37448;51.588;7.248;2022-07-30T13:20:07;4.20;;;1.50;;
51358;SDS011;37448;51.588;7.248;2022-07-30T13:22:38;4.15;;;1.58;;
51358;SDS011;37448;51.588;7.248;2022-07-30T13:25:09;4.25;;;1.52;;
51358;SDS011;37448;51.588;7.248;2022-07-30T13:27:40;6.20;;;1.75;;
51358;SDS011;37448;51.588;7.248;2022-07-30T13:30:10;3.60;;;1.48;;
51358;SDS011;37448;51.588;7.248;2022-07-30T13:32:41;4.50;;;1.48;;
51358;SDS011;37448;51.588;7.248;2022-07-30T13:35:11;4.28;;;1.50;;
51358;SDS011;37448;51.588;7.248;2022-07-30T13:37:41;3.72;;;1.48;;
51358;SDS011;37448;51.588;7.248;2022-07-30T13:40:12;5.35;;;1.52;;
51358;SDS011;37448;51.588;7.248;2022-07-30T13:42:42;5.25;;;1.60;;
51358;SDS011;37448;51.588;7.248;2022-07-30T13:45:12;3.63;;;1.25;;
51358;SDS011;37448;51.588;7.248;2022-07-30T13:47:43;3.33;;;1.20;;
51358;SDS011;37448;51.588;7.248;2022-07-30T13:50:13;2.92;;;1.35;;
51358;SDS011;37448;51.588;7.248;2022-07-30T13:52:43;4.90;;;1.40;;
51358;SDS011;37448;51.588;7.248;2022-07-30T13:55:14;6.93;;;2.25;;
51358;SDS011;37448;51.588;7.248;2022-07-30T13:57:44;4.80;;;1.65;;
51358;SDS011;37448;51.588;7.248;2022-07-30T14:00:15;6.30;;;1.50;;
51358;SDS011;37448;51.588;7.248;2022-07-30T14:02:46;5.63;;;1.60;;
51358;SDS011;37448;51.588;7.248;2022-07-30T14:05:16;6.10;;;1.30;;
51358;SDS011;37448;51.588;7.248;2022-07-30T14:07:46;4.43;;;1.50;;
51358;SDS011;37448;51.588;7.248;2022-07-30T14:10:17;3.15;;;1.42;;
51358;SDS011;37448;51.588;7.248;2022-07-30T14:12:50;6.68;;;1.67;;
51358;SDS011;37448;51.588;7.248;2022-07-30T14:15:26;4.10;;;1.60;;
51358;SDS011;37448;51.588;7.248;2022-07-30T14:18:00;6.63;;;1.80;;
51358;SDS011;37448;51.588;7.248;2022-07-30T14:20:30;5.38;;;1.58;;
51358;SDS011;37448;51.588;7.248;2022-07-30T14:23:00;3.55;;;1.48;;
51358;SDS011;37448;51.588;7.248;2022-07-30T14:25:31;5.63;;;1.45;;
51358;SDS011;37448;51.588;7.248;2022-07-30T14:28:01;3.58;;;1.60;;
51358;SDS011;37448;51.588;7.248;2022-07-30T14:30:32;5.13;;;1.40;;
51358;SDS011;37448;51.588;7.248;2022-07-30T14:33:02;5.32;;;1.40;;
51358;SDS011;37448;51.588;7.248;2022-07-30T14:35:33;3.33;;;1.45;;
51358;SDS011;37448;51.588;7.248;2022-07-30T14:38:03;4.05;;;1.20;;
51358;SDS011;37448;51.588;7.248;2022-07-30T14:40:34;3.95;;;1.20;;
51358;SDS011;37448;51.588;7.248;2022-07-30T14:43:05;3.08;;;1.45;;
51358;SDS011;37448;51.588;7.248;2022-07-30T14:45:35;2.92;;;1.42;;
51358;SDS011;37448;51.588;7.248;2022-07-30T14:48:05;4.15;;;1.42;;
51358;SDS011;37448;51.588;7.248;2022-07-30T14:50:36;4.22;;;1.67;;
51358;SDS011;37448;51.588;7.248;2022-07-30T14:53:06;7.88;;;1.55;;
51358;SDS011;37448;51.588;7.248;2022-07-30T14:55:36;3.42;;;1.30;;
51358;SDS011;37448;51.588;7.248;2022-07-30T14:58:07;2.88;;;1.30;;
51358;SDS011;37448;51.588;7.248;2022-07-30T15:00:37;5.00;;;1.67;;
51358;SDS011;37448;51.588;7.248;2022-07-30T15:03:07;3.90;;;1.45;;
51358;SDS011;37448;51.588;7.248;2022-07-30T15:05:38;3.80;;;1.33;;
51358;SDS011;37448;51.588;7.248;2022-07-30T15:08:08;5.38;;;1.42;;
51358;SDS011;37448;51.588;7.248;2022-07-30T15:10:38;5.25;;;1.65;;
51358;SDS011;37448;51.588;7.248;2022-07-30T15:13:09;4.88;;;1.50;;
51358;SDS011;37448;51.588;7.248;2022-07-30T15:15:39;4.25;;;1.50;;
51358;SDS011;37448;51.588;7.248;2022-07-30T15:18:10;4.97;;;1.67;;
51358;SDS011;37448;51.588;7.248;2022-07-30T15:20:40;4.55;;;1.60;;
51358;SDS011;37448;51.588;7.248;2022-07-30T15:23:10;4.28;;;1.52;;
51358;SDS011;37448;51.588;7.248;2022-07-30T15:25:41;5.63;;;1.42;;
51358;SDS011;37448;51.588;7.248;2022-07-30T15:28:12;3.65;;;1.30;;
51358;SDS011;37448;51.588;7.248;2022-07-30T15:30:42;3.70;;;1.40;;
51358;SDS011;37448;51.588;7.248;2022-07-30T15:33:12;4.03;;;1.30;;
51358;SDS011;37448;51.588;7.248;2022-07-30T15:35:43;3.35;;;1.60;;
51358;SDS011;37448;51.588;7.248;2022-07-30T15:38:13;2.17;;;1.25;;